Time;durP1;ratioP1;P1;durP2;ratioP2;P2;SDS_P1;SDS_P2;PMS_P1;PMS_P2;Temp;Humidity;BMP_temperature;BMP_pressure;BME280_temperature;BME280_humidity;BME280_pressure;Samples;Min_cycle;Max_cycle;Signal;HPM_P1;HPM_P2
2021/09/27 00:02:13;;;;;;;14.73;9.32;;;19.20;92.50;;;;;;5054866;28;20027;-62
2021/09/27 00:04:39;;;;;;;14.52;9.85;;;19.10;92.50;;;;;;5081119;28;20476;-62
2021/09/27 00:07:04;;;;;;;10.85;8.63;;;19.20;92.50;;;;;;5065516;28;20035;-62
2021/09/27 00:09:33;;;;;;;14.18;8.93;;;19.20;92.50;;;;;;5084303;28;20052;-62
2021/09/27 00:12:03;;;;;;;13.73;8.70;;;19.10;92.50;;;;;;5075975;28;20035;-62
2021/09/27 00:14:28;;;;;;;11.88;9.00;;;19.10;92.50;;;;;;5080690;28;20024;-62
2021/09/27 00:16:54;;;;;;;18.02;9.30;;;19.20;92.50;;;;;;5065046;28;20444;-62
2021/09/27 00:19:20;;;;;;;12.55;9.40;;;19.20;92.50;;;;;;5079366;28;20028;-62
2021/09/27 00:21:45;;;;;;;11.90;8.52;;;19.10;92.50;;;;;;5081720;28;20032;-63
2021/09/27 00:24:11;;;;;;;12.07;8.73;;;19.10;92.50;;;;;;5083269;28;20051;-62
2021/09/27 00:26:36;;;;;;;10.90;8.70;;;19.10;92.50;;;;;;5081876;28;20036;-63
2021/09/27 00:29:03;;;;;;;11.48;8.35;;;19.10;92.60;;;;;;5069467;28;20107;-62
2021/09/27 00:31:29;;;;;;;13.15;9.30;;;19.00;92.70;;;;;;5089379;28;20021;-62
2021/09/27 00:33:54;;;;;;;13.13;8.95;;;19.10;92.70;;;;;;5089593;28;20022;-62
2021/09/27 00:36:20;;;;;;;12.48;8.15;;;19.00;92.80;;;;;;5080798;28;20028;-62
2021/09/27 00:38:45;;;;;;;10.15;8.32;;;19.00;92.80;;;;;;5084616;28;20040;-62
2021/09/27 00:41:13;;;;;;;19.27;8.85;;;19.00;92.80;;;;;;5060602;28;20037;-62
2021/09/27 00:43:39;;;;;;;12.02;9.05;;;19.00;92.80;;;;;;5063753;28;20012;-62
2021/09/27 00:46:07;;;;;;;9.13;7.90;;;19.00;92.80;;;;;;5089307;28;20098;-62
2021/09/27 00:48:32;;;;;;;9.73;7.65;;;19.00;92.90;;;;;;5087887;28;20115;-62
2021/09/27 00:51:04;;;;;;;13.35;9.27;;;19.00;92.90;;;;;;5091038;28;20124;-62
2021/09/27 00:53:37;;;;;;;13.95;10.65;;;18.90;92.90;;;;;;5063952;28;20033;-62
2021/09/27 00:56:03;;;;;;;13.25;10.45;;;18.90;92.90;;;;;;5088114;28;20327;-62
2021/09/27 00:58:28;;;;;;;11.10;9.50;;;18.90;93.00;;;;;;5061923;28;20024;-62
2021/09/27 01:00:54;;;;;;;9.98;8.73;;;18.90;92.90;;;;;;5071028;28;20039;-62
2021/09/27 01:03:21;;;;;;;10.73;8.55;;;18.90;92.90;;;;;;5083433;28;20050;-62
2021/09/27 01:06:29;;;;;;;14.23;8.93;;;19.00;92.90;;;;;;5066974;28;20419;-62
2021/09/27 01:09:25;;;;;;;11.07;8.50;;;18.90;92.90;;;;;;5089541;28;20043;-62
2021/09/27 01:12:03;;;;;;;16.85;9.45;;;18.90;92.90;;;;;;5083019;28;20118;-62
2021/09/27 01:14:40;;;;;;;10.13;8.70;;;19.00;93.00;;;;;;5090817;28;20091;-63
2021/09/27 01:17:33;;;;;;;12.68;9.35;;;18.90;93.00;;;;;;5093523;28;20019;-62
2021/09/27 01:20:28;;;;;;;10.80;8.57;;;18.90;93.00;;;;;;5071099;28;20047;-62
2021/09/27 01:23:32;;;;;;;9.45;8.50;;;18.90;93.10;;;;;;5083427;28;20082;-62
2021/09/27 01:26:11;;;;;;;9.68;8.63;;;18.90;93.10;;;;;;5085318;28;20076;-62
2021/09/27 01:29:14;;;;;;;8.38;7.57;;;18.90;93.10;;;;;;5079293;28;20043;-62
2021/09/27 01:31:56;;;;;;;8.90;7.85;;;18.90;93.20;;;;;;5094385;28;20023;-62
2021/09/27 01:34:42;;;;;;;10.65;8.10;;;18.90;93.20;;;;;;5087409;28;20057;-62
2021/09/27 01:37:10;;;;;;;;;;;18.90;93.20;;;;;;5064126;28;20089;-62
2021/09/27 01:40:04;;;;;;;9.75;8.07;;;18.90;93.20;;;;;;5086825;28;20317;-62
2021/09/27 01:42:38;;;;;;;11.30;8.30;;;18.90;93.20;;;;;;5072182;28;20554;-62
2021/09/27 01:45:34;;;;;;;10.45;8.45;;;18.90;93.30;;;;;;5061386;28;20044;-62
2021/09/27 01:48:11;;;;;;;9.07;8.18;;;18.90;93.30;;;;;;5081512;28;20042;-62
2021/09/27 01:50:49;;;;;;;9.30;7.65;;;18.80;93.30;;;;;;5057958;28;20055;-62
2021/09/27 01:53:27;;;;;;;8.85;7.95;;;18.90;93.40;;;;;;5086350;28;20024;-62
2021/09/27 01:56:10;;;;;;;9.25;7.68;;;18.80;93.40;;;;;;5067086;28;20024;-62
2021/09/27 01:58:42;;;;;;;8.68;7.82;;;18.80;93.40;;;;;;5083600;28;20026;-63
2021/09/27 02:01:14;;;;;;;8.38;7.50;;;18.80;93.50;;;;;;5078603;28;20461;-62
2021/09/27 02:04:08;;;;;;;8.80;7.63;;;18.80;93.70;;;;;;5082050;28;20028;-62
2021/09/27 02:06:39;;;;;;;11.75;7.63;;;18.80;93.50;;;;;;5064340;28;20118;-62
2021/09/27 02:09:17;;;;;;;8.80;8.00;;;18.80;93.50;;;;;;5087947;28;20066;-63
2021/09/27 02:11:45;;;;;;;8.43;7.53;;;18.80;93.60;;;;;;5070601;28;20055;-62
2021/09/27 02:14:24;;;;;;;8.30;7.47;;;18.80;93.60;;;;;;5055903;28;20056;-63
2021/09/27 02:16:58;;;;;;;9.15;7.57;;;18.80;93.60;;;;;;5062870;28;20051;-62
2021/09/27 02:19:49;;;;;;;8.82;8.02;;;18.80;93.70;;;;;;5085573;28;20074;-62
2021/09/27 02:22:20;;;;;;;13.30;7.75;;;18.80;93.70;;;;;;5058093;28;20102;-62
2021/09/27 02:25:06;;;;;;;8.32;7.20;;;18.80;93.70;;;;;;5085856;28;20587;-62
2021/09/27 02:27:31;;;;;;;;;;;18.80;93.70;;;;;;5069011;28;20441;-62
2021/09/27 02:29:57;;;;;;;10.88;8.35;;;18.70;93.70;;;;;;5095034;28;19938;-62
2021/09/27 02:32:28;;;;;;;10.52;8.70;;;18.80;93.70;;;;;;5086281;28;20035;-62
2021/09/27 02:35:05;;;;;;;11.73;8.73;;;18.70;93.70;;;;;;5075503;28;20055;-62
2021/09/27 02:37:37;;;;;;;11.73;8.60;;;18.80;93.80;;;;;;5072794;28;20055;-62
2021/09/27 02:40:19;;;;;;;9.82;8.63;;;18.70;93.80;;;;;;5081604;28;20027;-63
2021/09/27 02:42:49;;;;;;;13.55;8.77;;;18.70;93.80;;;;;;5069232;28;20679;-62
2021/09/27 02:45:15;;;;;;;10.30;8.95;;;18.70;93.80;;;;;;5084902;28;20495;-62
2021/09/27 02:47:46;;;;;;;12.05;9.27;;;18.70;93.90;;;;;;5044445;28;20050;-62
2021/09/27 02:50:15;;;;;;;10.00;8.50;;;18.70;93.90;;;;;;5086459;28;20031;-62
2021/09/27 02:52:40;;;;;;;10.70;8.65;;;18.60;93.90;;;;;;5077733;28;20603;-63
2021/09/27 02:55:15;;;;;;;11.05;8.45;;;18.60;93.90;;;;;;5086885;28;20036;-61
2021/09/27 02:57:46;;;;;;;10.15;9.07;;;18.60;93.90;;;;;;5073965;28;20032;-62
2021/09/27 03:00:49;;;;;;;9.38;8.43;;;18.60;94.00;;;;;;5092457;28;20035;-62
2021/09/27 03:04:04;;;;;;;9.77;8.77;;;18.60;94.00;;;;;;5061547;28;20027;-63
2021/09/27 03:06:54;;;;;;;10.88;9.13;;;18.60;94.00;;;;;;5005533;28;20060;-62
2021/09/27 03:09:48;;;;;;;9.07;8.18;;;18.60;94.00;;;;;;5059208;28;20030;-62
2021/09/27 03:12:35;;;;;;;9.13;8.07;;;18.60;94.00;;;;;;5085246;28;20039;-62
2021/09/27 03:15:01;;;;;;;10.30;8.38;;;18.60;93.90;;;;;;5085224;28;20476;-62
2021/09/27 03:17:42;;;;;;;10.63;8.18;;;18.60;93.90;;;;;;5089086;28;20034;-62
2021/09/27 03:20:15;;;;;;;9.85;8.20;;;18.60;94.00;;;;;;5059971;28;20504;-62
2021/09/27 03:23:06;;;;;;;8.73;7.88;;;18.60;94.00;;;;;;5069238;28;20700;-62
2021/09/27 03:25:57;;;;;;;10.25;7.90;;;18.50;94.10;;;;;;5085013;28;20040;-63
2021/09/27 03:28:34;;;;;;;9.18;8.30;;;18.50;94.10;;;;;;5094870;28;20440;-63
2021/09/27 03:31:06;;;;;;;9.38;8.13;;;18.50;94.10;;;;;;5079796;28;20048;-62
2021/09/27 03:34:09;;;;;;;10.80;8.05;;;18.50;94.10;;;;;;5076824;28;20032;-62
2021/09/27 03:36:53;;;;;;;10.35;8.82;;;18.50;94.20;;;;;;5079131;28;20063;-62
2021/09/27 03:39:50;;;;;;;9.98;8.27;;;18.50;94.20;;;;;;5080464;28;20448;-62
2021/09/27 03:42:48;;;;;;;9.50;8.20;;;18.40;94.20;;;;;;5057843;28;20028;-62
2021/09/27 03:45:30;;;;;;;10.75;8.10;;;18.40;94.20;;;;;;5078362;28;20019;-62
2021/09/27 03:48:02;;;;;;;8.63;7.82;;;18.40;94.20;;;;;;5064599;28;20032;-62
2021/09/27 03:50:41;;;;;;;8.43;7.63;;;18.40;94.20;;;;;;5069952;28;20023;-62
2021/09/27 03:53:10;;;;;;;10.40;7.95;;;18.40;94.30;;;;;;5088278;28;20027;-62
2021/09/27 03:55:48;;;;;;;8.65;7.78;;;18.40;94.30;;;;;;5042726;28;20031;-62
2021/09/27 03:58:28;;;;;;;8.20;7.38;;;18.40;94.30;;;;;;5063317;28;20020;-62
2021/09/27 04:01:16;;;;;;;12.20;8.10;;;18.40;94.30;;;;;;5051299;28;20240;-62
2021/09/27 04:03:48;;;;;;;8.77;7.97;;;18.40;94.30;;;;;;5068091;28;20390;-62
2021/09/27 04:06:43;;;;;;;8.73;7.82;;;18.40;94.20;;;;;;5086898;28;20384;-62
2021/09/27 04:10:02;;;;;;;8.50;7.35;;;18.40;94.20;;;;;;5072605;28;20498;-62
2021/09/27 04:13:01;;;;;;;8.48;7.68;;;18.40;94.30;;;;;;4986330;28;20041;-62
2021/09/27 04:15:54;;;;;;;7.82;7.13;;;18.30;94.30;;;;;;4983446;28;20033;-62
2021/09/27 04:18:27;;;;;;;10.45;7.55;;;18.30;94.30;;;;;;5078638;28;20318;-62
2021/09/27 04:21:02;;;;;;;10.10;8.00;;;18.30;94.40;;;;;;5082738;28;20043;-62
2021/09/27 04:23:33;;;;;;;8.75;7.93;;;18.30;94.40;;;;;;5046073;28;20115;-62
2021/09/27 04:26:10;;;;;;;10.73;8.18;;;18.30;94.40;;;;;;5055905;28;20115;-62
2021/09/27 04:29:10;;;;;;;8.38;7.40;;;18.20;94.40;;;;;;5066105;28;20454;-62
2021/09/27 04:32:29;;;;;;;8.75;7.90;;;18.20;94.40;;;;;;5061385;28;20043;-63
2021/09/27 04:35:30;;;;;;;9.80;7.78;;;18.20;94.50;;;;;;5013967;28;20511;-62
2021/09/27 04:37:56;;;;;;;9.82;8.77;;;18.20;94.50;;;;;;5063712;28;20036;-62
2021/09/27 04:40:46;;;;;;;8.95;8.15;;;18.20;94.50;;;;;;5064091;28;20046;-62
2021/09/27 04:43:39;;;;;;;8.95;8.05;;;18.20;94.50;;;;;;5080844;28;20067;-62
2021/09/27 04:46:12;;;;;;;10.82;7.88;;;18.20;94.50;;;;;;5059825;28;20072;-62
2021/09/27 04:48:54;;;;;;;10.48;7.93;;;18.10;94.50;;;;;;5062279;28;20024;-63
2021/09/27 04:51:47;;;;;;;9.27;8.27;;;18.10;94.50;;;;;;5048467;28;20074;-62
2021/09/27 04:54:34;;;;;;;8.43;7.55;;;18.10;94.60;;;;;;5033217;28;20044;-62
2021/09/27 04:57:05;;;;;;;8.40;7.60;;;18.10;94.60;;;;;;5082462;28;20043;-62
2021/09/27 04:59:50;;;;;;;8.70;7.80;;;18.10;94.60;;;;;;5063733;28;20374;-62
2021/09/27 05:02:40;;;;;;;10.05;7.95;;;18.00;94.60;;;;;;5050455;28;20428;-63
2021/09/27 05:05:13;;;;;;;8.27;7.47;;;18.00;94.70;;;;;;5079875;28;20039;-63
2021/09/27 05:07:53;;;;;;;9.38;8.10;;;18.00;94.60;;;;;;5063417;28;20028;-63
2021/09/27 05:10:45;;;;;;;8.73;7.82;;;18.00;94.70;;;;;;5069311;28;20025;-62
2021/09/27 05:13:39;;;;;;;10.38;8.05;;;18.00;94.80;;;;;;5064147;28;20122;-62
2021/09/27 05:16:11;;;;;;;10.43;7.95;;;17.90;94.60;;;;;;5052606;28;20443;-62
2021/09/27 05:19:15;;;;;;;9.10;7.95;;;18.00;94.70;;;;;;5085460;28;20053;-62
2021/09/27 05:22:21;;;;;;;8.73;7.93;;;17.90;94.70;;;;;;5073082;28;20048;-62
2021/09/27 05:25:02;;;;;;;10.98;8.00;;;17.90;94.70;;;;;;5035685;28;20056;-62
2021/09/27 05:27:33;;;;;;;11.35;7.40;;;17.90;94.70;;;;;;5072815;28;20027;-62
2021/09/27 05:30:16;;;;;;;8.35;7.45;;;17.90;94.70;;;;;;5080240;28;20032;-62
2021/09/27 05:33:03;;;;;;;8.23;7.05;;;17.90;94.70;;;;;;5079541;28;20056;-62
2021/09/27 05:35:40;;;;;;;8.02;7.32;;;17.90;94.70;;;;;;5085177;28;20510;-62
2021/09/27 05:38:23;;;;;;;8.00;7.20;;;17.80;94.70;;;;;;5079914;28;20028;-62
2021/09/27 05:41:18;;;;;;;11.32;7.80;;;17.80;94.70;;;;;;5084809;28;20119;-62
2021/09/27 05:43:53;;;;;;;9.18;8.10;;;17.80;94.70;;;;;;5094335;28;20069;-62
2021/09/27 05:46:34;;;;;;;8.43;7.53;;;17.80;94.60;;;;;;5087594;28;20081;-62
2021/09/27 05:49:03;;;;;;;9.40;7.63;;;17.80;94.60;;;;;;5078482;28;20025;-62
2021/09/27 05:51:37;;;;;;;8.13;7.32;;;17.80;94.60;;;;;;5084124;28;20028;-63
2021/09/27 05:54:20;;;;;;;9.85;7.22;;;17.80;94.60;;;;;;5092194;28;20032;-62
2021/09/27 05:57:06;;;;;;;8.98;7.38;;;17.80;94.60;;;;;;5079811;28;20337;-63
2021/09/27 05:59:49;;;;;;;8.73;7.82;;;17.80;94.60;;;;;;5065735;28;20020;-62
2021/09/27 06:02:32;;;;;;;11.35;7.10;;;17.80;94.60;;;;;;5071359;28;20092;-62
2021/09/27 06:05:12;;;;;;;8.80;7.90;;;17.80;94.60;;;;;;5091441;28;20027;-62
2021/09/27 06:08:02;;;;;;;11.15;7.68;;;17.80;94.60;;;;;;5099139;28;20157;-62
2021/09/27 06:10:51;;;;;;;9.02;7.65;;;17.80;94.60;;;;;;5073734;28;20051;-63
2021/09/27 06:13:19;;;;;;;10.85;7.95;;;17.80;94.90;;;;;;5083624;28;20040;-62
2021/09/27 06:15:50;;;;;;;14.05;7.93;;;17.80;94.70;;;;;;5088667;28;20059;-62
2021/09/27 06:18:25;;;;;;;12.05;8.13;;;17.90;94.70;;;;;;5055839;28;20115;-62
2021/09/27 06:21:02;;;;;;;16.70;8.47;;;17.80;94.70;;;;;;5081888;28;20025;-62
2021/09/27 06:23:45;;;;;;;18.55;8.63;;;17.80;94.70;;;;;;5081795;28;20032;-62
2021/09/27 06:26:12;;;;;;;13.65;7.82;;;17.90;94.70;;;;;;5082862;28;20012;-63
2021/09/27 06:28:46;;;;;;;17.63;8.63;;;17.90;94.70;;;;;;5063505;28;20482;-62
2021/09/27 06:31:32;;;;;;;28.07;8.97;;;17.90;94.70;;;;;;5056706;28;20391;-62
2021/09/27 06:34:01;;;;;;;;;;;17.90;94.70;;;;;;5082991;28;20024;-62
2021/09/27 06:36:30;;;;;;;21.05;8.18;;;17.90;94.80;;;;;;5072419;28;19912;-63
2021/09/27 06:38:57;;;;;;;29.92;9.15;;;17.90;94.70;;;;;;5074439;28;20032;-62
2021/09/27 06:41:24;;;;;;;20.52;8.73;;;17.90;94.70;;;;;;5055873;28;20039;-62
2021/09/27 06:43:51;;;;;;;19.42;8.32;;;17.90;94.60;;;;;;5063225;28;20336;-62
2021/09/27 06:46:16;;;;;;;22.35;9.50;;;17.90;94.60;;;;;;5064761;28;20028;-62
2021/09/27 06:48:42;;;;;;;33.20;8.95;;;17.90;94.60;;;;;;5080466;28;20035;-62
2021/09/27 06:51:07;;;;;;;23.85;8.70;;;17.90;94.60;;;;;;5070475;28;20123;-62
2021/09/27 06:53:33;;;;;;;20.35;9.02;;;17.90;94.70;;;;;;5060238;28;20475;-62
2021/09/27 06:55:59;;;;;;;31.85;8.65;;;17.90;94.70;;;;;;5062319;28;20040;-62
2021/09/27 06:58:25;;;;;;;20.63;9.80;;;17.90;94.70;;;;;;5069752;28;20032;-62
2021/09/27 07:00:53;;;;;;;21.40;9.18;;;17.90;94.70;;;;;;5090580;28;20033;-62
2021/09/27 07:03:19;;;;;;;25.25;9.35;;;17.90;94.80;;;;;;5076755;28;20032;-62
2021/09/27 07:05:45;;;;;;;42.92;10.82;;;17.90;94.80;;;;;;5079754;28;20449;-62
2021/09/27 07:08:10;;;;;;;29.95;10.10;;;17.90;95.00;;;;;;5094658;28;20032;-62
2021/09/27 07:10:36;;;;;;;34.33;10.10;;;17.90;95.10;;;;;;5085550;28;20036;-62
2021/09/27 07:13:01;;;;;;;23.90;9.15;;;17.90;95.10;;;;;;5083519;28;20182;-62
2021/09/27 07:15:27;;;;;;;31.30;9.93;;;17.90;95.20;;;;;;5079492;28;20462;-62
2021/09/27 07:17:52;;;;;;;26.10;9.77;;;17.90;95.40;;;;;;5078439;28;20379;-62
2021/09/27 07:20:20;;;;;;;21.65;9.18;;;17.90;95.40;;;;;;5081940;28;20016;-63
2021/09/27 07:22:46;;;;;;;20.42;9.23;;;17.90;95.70;;;;;;5080424;28;20067;-63
2021/09/27 07:25:12;;;;;;;23.55;10.10;;;17.80;95.90;;;;;;5079029;28;20140;-62
2021/09/27 07:27:37;;;;;;;18.63;9.32;;;17.80;96.00;;;;;;5065503;28;20111;-63
2021/09/27 07:30:04;;;;;;;16.73;8.20;;;17.80;96.10;;;;;;5060437;28;20055;-62
2021/09/27 07:32:29;;;;;;;14.55;8.80;;;17.80;96.20;;;;;;5055026;28;21359;-63
2021/09/27 07:34:55;;;;;;;16.75;8.57;;;17.80;96.40;;;;;;5076643;28;20028;-62
2021/09/27 07:37:20;;;;;;;21.58;8.57;;;17.80;96.40;;;;;;5081677;28;20036;-62
2021/09/27 07:39:46;;;;;;;19.95;9.27;;;17.80;96.70;;;;;;5081555;28;20048;-63
2021/09/27 07:42:11;;;;;;;11.52;8.73;;;17.80;96.30;;;;;;5075778;28;20395;-62
2021/09/27 07:44:37;;;;;;;16.10;8.45;;;17.80;96.30;;;;;;5082829;28;20452;-62
2021/09/27 07:47:03;;;;;;;18.95;9.93;;;17.80;96.30;;;;;;5064707;28;20032;-62
2021/09/27 07:49:29;;;;;;;21.75;10.52;;;17.90;96.30;;;;;;5082348;28;20044;-62
2021/09/27 07:51:57;;;;;;;17.88;9.60;;;17.90;96.40;;;;;;5063187;28;20429;-62
2021/09/27 07:54:22;;;;;;;24.65;9.38;;;17.90;96.30;;;;;;5081684;28;20024;-63
2021/09/27 07:56:49;;;;;;;30.45;9.88;;;17.90;96.30;;;;;;5060347;28;20028;-62
2021/09/27 07:59:14;;;;;;;27.98;9.77;;;17.90;96.20;;;;;;5079156;28;20020;-62
2021/09/27 08:01:40;;;;;;;29.40;11.15;;;17.90;96.30;;;;;;5081240;28;20082;-62
2021/09/27 08:04:06;;;;;;;18.42;9.63;;;18.00;96.20;;;;;;5048159;28;20032;-62
2021/09/27 08:06:31;;;;;;;30.42;10.02;;;18.00;96.20;;;;;;5063044;28;20032;-62
2021/09/27 08:08:57;;;;;;;39.03;10.98;;;18.00;96.40;;;;;;5061877;28;20047;-62
2021/09/27 08:11:22;;;;;;;45.22;12.85;;;18.00;96.40;;;;;;5045120;28;20514;-62
2021/09/27 08:13:48;;;;;;;37.90;11.32;;;18.00;96.60;;;;;;5079676;28;20032;-63
2021/09/27 08:16:13;;;;;;;41.00;11.88;;;18.00;96.60;;;;;;5082213;28;20070;-62
2021/09/27 08:18:39;;;;;;;53.08;11.73;;;18.00;96.40;;;;;;5082526;28;20115;-63
2021/09/27 08:21:07;;;;;;;38.60;11.68;;;18.00;96.40;;;;;;5060394;28;20097;-62
2021/09/27 08:23:33;;;;;;;34.95;11.63;;;18.00;96.30;;;;;;5057396;28;20082;-62
2021/09/27 08:25:58;;;;;;;33.25;11.45;;;18.10;96.20;;;;;;5061002;28;20286;-63
2021/09/27 08:28:25;;;;;;;58.90;13.82;;;18.10;96.30;;;;;;5067578;28;20051;-63
2021/09/27 08:30:56;;;;;;;48.15;13.73;;;18.10;96.40;;;;;;5060179;28;20328;-62
2021/09/27 08:33:22;;;;;;;52.42;12.73;;;18.10;96.50;;;;;;5063799;28;20039;-63
2021/09/27 08:35:48;;;;;;;35.08;11.45;;;18.20;96.60;;;;;;5060817;28;20442;-62
2021/09/27 08:38:15;;;;;;;39.15;11.82;;;18.20;96.60;;;;;;5070499;28;20120;-62
2021/09/27 08:41:10;;;;;;;45.92;13.95;;;18.20;96.50;;;;;;5051458;28;20471;-62
2021/09/27 08:43:45;;;;;;;42.65;12.45;;;18.20;96.50;;;;;;5038437;28;20037;-62
2021/09/27 08:46:21;;;;;;;;;;;18.20;96.50;;;;;;5048569;28;20016;-62
2021/09/27 08:48:50;;;;;;;42.33;12.15;;;18.20;96.40;;;;;;5074139;28;20002;-62
2021/09/27 08:51:16;;;;;;;35.30;10.88;;;18.30;96.40;;;;;;5044044;28;20040;-63
2021/09/27 08:53:44;;;;;;;59.17;13.45;;;18.20;96.30;;;;;;5085449;28;20071;-63
2021/09/27 08:56:32;;;;;;;40.42;13.38;;;18.30;96.30;;;;;;5085072;28;20028;-62
2021/09/27 08:58:57;;;;;;;37.67;11.85;;;18.30;96.00;;;;;;5065255;28;20421;-62
2021/09/27 09:01:35;;;;;;;39.00;11.63;;;18.40;95.90;;;;;;5083622;28;20099;-62
2021/09/27 09:04:07;;;;;;;41.90;11.77;;;18.40;95.80;;;;;;5062093;28;20036;-62
2021/09/27 09:06:38;;;;;;;49.28;11.70;;;18.40;95.80;;;;;;5044998;28;20054;-62
2021/09/27 09:09:03;;;;;;;73.70;15.82;;;18.40;95.80;;;;;;5068206;28;20028;-63
2021/09/27 09:11:39;;;;;;;53.53;14.18;;;18.40;95.80;;;;;;5085239;28;20031;-62
2021/09/27 09:14:42;;;;;;;53.13;13.40;;;18.50;95.80;;;;;;5066044;28;20535;-63
2021/09/27 09:17:31;;;;;;;47.38;13.38;;;18.50;95.50;;;;;;5039489;28;20051;-62
2021/09/27 09:19:57;;;;;;;67.88;14.65;;;18.50;95.40;;;;;;5059529;28;20299;-62
2021/09/27 09:22:32;;;;;;;38.53;11.60;;;18.50;95.30;;;;;;5067066;28;20308;-62
2021/09/27 09:24:58;;;;;;;33.30;11.95;;;18.60;95.30;;;;;;5040104;28;20159;-62
2021/09/27 09:27:24;;;;;;;48.95;11.98;;;18.60;95.20;;;;;;5065248;28;20100;-62
2021/09/27 09:29:49;;;;;;;42.80;11.73;;;18.60;95.20;;;;;;5030991;28;20432;-62
2021/09/27 09:32:24;;;;;;;39.40;11.27;;;18.60;95.00;;;;;;5064969;28;20097;-62
2021/09/27 09:35:10;;;;;;;39.50;11.82;;;18.70;94.90;;;;;;5062376;28;20023;-62
2021/09/27 09:37:38;;;;;;;43.22;11.73;;;18.70;94.90;;;;;;5080774;28;20139;-62
2021/09/27 09:40:16;;;;;;;31.85;11.35;;;18.80;94.80;;;;;;5072302;28;20588;-64
2021/09/27 09:42:42;;;;;;;35.92;12.05;;;18.70;94.80;;;;;;5057219;28;20455;-63
2021/09/27 09:45:16;;;;;;;39.50;11.93;;;18.80;94.60;;;;;;5047174;28;20036;-62
2021/09/27 09:47:42;;;;;;;32.08;10.80;;;18.80;94.40;;;;;;5064687;28;20118;-62
2021/09/27 09:50:13;;;;;;;40.72;10.88;;;18.80;94.30;;;;;;5062652;28;20074;-62
2021/09/27 09:52:44;;;;;;;40.17;11.25;;;18.90;94.20;;;;;;5063996;28;20033;-62
2021/09/27 09:55:40;;;;;;;33.85;12.15;;;18.90;94.10;;;;;;5063528;28;20036;-62
2021/09/27 09:58:12;;;;;;;44.08;11.68;;;19.00;94.00;;;;;;5062355;28;20032;-62
2021/09/27 10:00:50;;;;;;;39.92;10.88;;;19.00;93.90;;;;;;5065779;28;20036;-62
2021/09/27 10:03:18;;;;;;;44.83;12.00;;;19.00;93.80;;;;;;5080892;28;20036;-62
2021/09/27 10:06:15;;;;;;;52.47;12.18;;;19.00;93.80;;;;;;5078608;28;20040;-62
2021/09/27 10:08:43;;;;;;;;;;;19.10;93.70;;;;;;5061404;28;20364;-62
2021/09/27 10:11:12;;;;;;;34.15;10.57;;;19.10;93.50;;;;;;5081691;28;19951;-63
2021/09/27 10:13:43;;;;;;;39.60;12.00;;;19.20;93.50;;;;;;5044712;28;20020;-62
2021/09/27 10:16:31;;;;;;;47.40;12.05;;;19.20;93.40;;;;;;5063237;28;20055;-63
2021/09/27 10:19:28;;;;;;;42.45;11.15;;;19.20;93.20;;;;;;5060869;28;20644;-65
2021/09/27 10:22:10;;;;;;;32.90;10.90;;;19.30;93.10;;;;;;5047213;28;20130;-72
2021/09/27 10:24:42;;;;;;;49.72;12.05;;;19.30;92.90;;;;;;5045745;28;20036;-63
2021/09/27 10:27:44;;;;;;;47.83;11.90;;;19.30;92.80;;;;;;5058838;28;20056;-62
2021/09/27 10:30:12;;;;;;;40.90;11.80;;;19.30;92.70;;;;;;5060736;28;20707;-63
2021/09/27 10:32:44;;;;;;;61.25;12.57;;;19.40;92.70;;;;;;5057692;28;20044;-63
2021/09/27 10:35:28;;;;;;;38.17;11.48;;;19.40;92.50;;;;;;5076940;28;20138;-61
2021/09/27 10:38:25;;;;;;;41.92;11.63;;;19.50;92.40;;;;;;5079602;28;20017;-61
2021/09/27 10:40:51;;;;;;;36.15;10.45;;;19.60;92.20;;;;;;5080451;28;20139;-61
2021/09/27 10:43:22;;;;;;;41.30;10.82;;;19.60;92.00;;;;;;5062065;28;20273;-61
2021/09/27 10:45:53;;;;;;;41.00;11.75;;;19.60;91.90;;;;;;5043507;28;20475;-61
2021/09/27 10:48:19;;;;;;;50.08;11.48;;;19.60;91.80;;;;;;5043176;28;20055;-61
2021/09/27 10:50:56;;;;;;;85.20;14.13;;;19.70;91.80;;;;;;5059381;28;20059;-62
2021/09/27 10:53:33;;;;;;;42.88;10.85;;;19.70;91.50;;;;;;5044524;28;20342;-61
2021/09/27 10:56:11;;;;;;;54.42;11.93;;;19.70;91.40;;;;;;5061049;28;20597;-61
2021/09/27 10:58:44;;;;;;;42.60;11.95;;;19.80;91.40;;;;;;5046022;28;20035;-61
2021/09/27 11:01:11;;;;;;;56.17;12.63;;;19.80;91.40;;;;;;5064666;28;20023;-61
2021/09/27 11:03:43;;;;;;;58.30;12.38;;;19.80;91.30;;;;;;5029051;28;20507;-61
2021/09/27 11:06:21;;;;;;;55.70;11.90;;;19.90;91.30;;;;;;5050627;28;20127;-61
2021/09/27 11:08:59;;;;;;;44.33;12.05;;;19.90;91.00;;;;;;5055201;28;21259;-61
2021/09/27 11:11:45;;;;;;;46.97;11.52;;;20.00;90.60;;;;;;5038367;28;20052;-60
2021/09/27 11:14:23;;;;;;;40.47;10.75;;;20.00;90.30;;;;;;5055796;28;20500;-61
2021/09/27 11:16:55;;;;;;;44.88;12.65;;;20.10;90.00;;;;;;5078753;28;20125;-61
2021/09/27 11:19:32;;;;;;;234.35;28.73;;;20.10;90.00;;;;;;5060124;28;20059;-61
2021/09/27 11:22:13;;;;;;;69.43;12.38;;;20.10;89.60;;;;;;5081082;28;20073;-61
2021/09/27 11:24:44;;;;;;;44.88;10.98;;;20.20;89.10;;;;;;5078252;28;20601;-61
2021/09/27 11:27:26;;;;;;;58.80;11.77;;;20.30;89.00;;;;;;5078610;28;20032;-61
2021/09/27 11:30:23;;;;;;;25.33;9.73;;;20.30;88.80;;;;;;5046741;28;20028;-61
2021/09/27 11:32:52;;;;;;;38.20;9.13;;;20.40;88.30;;;;;;5081220;28;20036;-61
2021/09/27 11:35:34;;;;;;;29.30;9.27;;;20.40;88.10;;;;;;5058201;28;20031;-61
2021/09/27 11:38:05;;;;;;;51.47;11.52;;;20.40;87.50;;;;;;5073421;28;20037;-61
2021/09/27 11:40:36;;;;;;;27.58;9.38;;;20.50;87.50;;;;;;5066668;28;20653;-60
2021/09/27 11:43:34;;;;;;;46.25;10.00;;;20.50;87.20;;;;;;5047065;28;20031;-61
2021/09/27 11:46:03;;;;;;;39.45;10.68;;;20.60;86.70;;;;;;5058472;28;20038;-61
2021/09/27 11:48:29;;;;;;;44.75;9.73;;;20.70;86.60;;;;;;5073811;28;20659;-62
2021/09/27 11:51:04;;;;;;;56.72;11.10;;;20.70;86.40;;;;;;5074441;28;20036;-61
2021/09/27 11:53:42;;;;;;;47.03;10.52;;;20.80;86.20;;;;;;5058831;28;20016;-61
2021/09/27 11:56:10;;;;;;;35.28;9.85;;;20.80;85.90;;;;;;5058688;28;20055;-61
2021/09/27 11:58:46;;;;;;;52.83;10.70;;;20.90;85.50;;;;;;5060419;28;20028;-61
2021/09/27 12:01:29;;;;;;;;;;;20.90;85.60;;;;;;5076363;28;20486;-61
2021/09/27 12:03:59;;;;;;;36.17;10.13;;;20.90;85.50;;;;;;5075566;28;20009;-61
2021/09/27 12:06:41;;;;;;;29.95;9.57;;;21.00;85.60;;;;;;5053998;28;20123;-61
2021/09/27 12:09:11;;;;;;;29.92;9.93;;;21.00;85.60;;;;;;5054505;28;20027;-61
2021/09/27 12:11:46;;;;;;;48.83;11.20;;;21.00;85.60;;;;;;5058173;28;20059;-61
2021/09/27 12:14:24;;;;;;;;;;;21.10;85.70;;;;;;5044696;28;20045;-61
2021/09/27 12:16:51;;;;;;;42.00;11.23;;;21.10;85.70;;;;;;5076830;28;19916;-61
2021/09/27 12:19:27;;;;;;;34.22;10.68;;;21.20;85.80;;;;;;5042571;28;20025;-61
2021/09/27 12:21:55;;;;;;;53.80;12.63;;;21.20;85.90;;;;;;5077528;28;20149;-61
2021/09/27 12:24:23;;;;;;;61.40;12.23;;;21.20;86.00;;;;;;5059093;28;20139;-61
2021/09/27 12:27:05;;;;;;;55.25;11.23;;;21.30;85.90;;;;;;5064834;28;20024;-61
2021/09/27 12:29:30;;;;;;;41.78;11.48;;;21.30;85.80;;;;;;5060454;28;20024;-61
2021/09/27 12:31:59;;;;;;;37.30;10.80;;;21.40;85.70;;;;;;5044565;28;20031;-61
2021/09/27 12:34:49;;;;;;;45.90;10.18;;;21.40;85.60;;;;;;5059561;28;20133;-61
2021/09/27 12:37:17;;;;;;;52.13;10.48;;;21.40;85.50;;;;;;5047974;28;20032;-61
2021/09/27 12:39:43;;;;;;;43.53;11.63;;;21.40;85.40;;;;;;5061404;28;20037;-61
2021/09/27 12:42:14;;;;;;;32.83;10.82;;;21.40;85.30;;;;;;5079799;28;20028;-61
2021/09/27 12:44:44;;;;;;;44.05;10.38;;;21.40;85.30;;;;;;5061647;28;20070;-61
2021/09/27 12:47:10;;;;;;;37.75;9.80;;;21.50;85.30;;;;;;5079197;28;20031;-61
2021/09/27 12:49:58;;;;;;;36.05;10.10;;;21.50;85.30;;;;;;5063171;28;20030;-62
2021/09/27 12:52:34;;;;;;;31.35;10.30;;;21.60;84.90;;;;;;5050947;28;20415;-61
2021/09/27 12:55:00;;;;;;;25.52;9.55;;;21.60;84.60;;;;;;5064790;28;20055;-61
2021/09/27 12:57:28;;;;;;;21.45;9.40;;;21.60;84.50;;;;;;5062481;28;20028;-61
2021/09/27 12:59:55;;;;;;;24.13;10.00;;;21.60;84.40;;;;;;5061951;28;20020;-61
2021/09/27 13:02:22;;;;;;;30.98;9.77;;;21.60;84.50;;;;;;5048071;28;20607;-61
2021/09/27 13:04:53;;;;;;;28.63;10.25;;;21.60;84.50;;;;;;5059625;28;20067;-61
2021/09/27 13:07:19;;;;;;;25.50;10.13;;;21.70;84.60;;;;;;5062526;28;20051;-61
2021/09/27 13:10:00;;;;;;;23.58;9.40;;;21.70;84.80;;;;;;5078693;28;20108;-62
2021/09/27 13:12:39;;;;;;;26.83;9.57;;;21.70;84.60;;;;;;5045355;28;20028;-62
2021/09/27 13:15:13;;;;;;;21.58;8.98;;;21.70;84.40;;;;;;5047818;28;20039;-61
2021/09/27 13:17:58;;;;;;;33.60;9.73;;;21.70;84.50;;;;;;5063758;28;20039;-61
2021/09/27 13:20:41;;;;;;;27.03;9.87;;;21.70;84.50;;;;;;5048282;28;20368;-61
2021/09/27 13:23:07;;;;;;;24.33;9.95;;;21.60;84.10;;;;;;5069829;28;20471;-62